Puerto Vallarta, JAL, Mexico
Current Conditions -  °F | °C
As of 4:41 PM on Monday 24 Nov 2014 (Local Time) from MMPR Reporting Station
Overcast Overcast  
Wind Chill: 79°   Ceiling: 25000
Heat Index: 81°   Visibility: 15mi
Dew Point: 68°   Wind: 6mph
Humidity: 69%   Direction: 200°SSW
Pressure: 29.85"   Gusts: NA
Location:  20.62°N, 105.23°W
Report Text: MMPR 242241Z 20005KT 15SM SCT035 OVC250 26/20 A2985 RMK 8/507 AC
Loading
Personal Weather Stations






























Interactive Weather Map New forecast layout! Learn more

10-Day Weather Forecast

Advertisements
Track Severe Weather on mobile